createdAt,value
2022-08-01T00:00:06.991Z,4.03
2022-08-01T00:02:36.251Z,2.25
2022-08-01T00:05:03.062Z,1.92
2022-08-01T00:07:29.823Z,2.85
2022-08-01T00:09:56.185Z,3.58
2022-08-01T00:12:22.568Z,3.80
2022-08-01T00:14:48.983Z,2.63
2022-08-01T00:17:15.378Z,2.28
2022-08-01T00:19:41.920Z,2.85
2022-08-01T00:22:08.706Z,2.10
2022-08-01T00:24:35.324Z,3.33
2022-08-01T00:27:02.803Z,4.03
2022-08-01T00:30:09.734Z,4.47
2022-08-01T00:32:15.953Z,3.42
2022-08-01T00:34:42.346Z,4.85
2022-08-01T00:37:08.750Z,3.47
2022-08-01T00:39:35.907Z,3.65
2022-08-01T00:42:08.877Z,3.33
2022-08-01T00:44:35.545Z,4.00
2022-08-01T00:47:02.211Z,3.40
2022-08-01T00:49:28.782Z,3.38
2022-08-01T00:51:55.811Z,2.58
2022-08-01T00:54:23.384Z,4.03
2022-08-01T00:56:49.865Z,5.60
2022-08-01T00:59:18.361Z,2.78
2022-08-01T01:01:50.046Z,7.28
2022-08-01T01:04:19.596Z,5.00
2022-08-01T01:06:48.956Z,2.58
2022-08-01T01:09:34.172Z,3.58
2022-08-01T01:12:13.112Z,5.47
2022-08-01T01:14:47.493Z,3.22
2022-08-01T01:17:17.520Z,3.15
2022-08-01T01:19:58.541Z,3.28
2022-08-01T01:22:30.716Z,3.03
2022-08-01T01:24:57.299Z,3.95
2022-08-01T01:27:32.767Z,3.10
2022-08-01T01:30:01.091Z,5.10
2022-08-01T01:32:39.521Z,4.30
2022-08-01T01:35:08.886Z,3.85
2022-08-01T01:37:36.513Z,6.50
2022-08-01T01:40:04.728Z,4.15
2022-08-01T01:42:31.571Z,3.50
2022-08-01T01:44:58.372Z,5.10
2022-08-01T01:47:25.748Z,2.80
2022-08-01T01:49:53.185Z,4.03
2022-08-01T01:52:20.230Z,6.40
2022-08-01T01:54:50.499Z,3.42
2022-08-01T01:57:18.095Z,3.03
2022-08-01T01:59:46.824Z,4.68
2022-08-01T02:02:14.243Z,4.40
2022-08-01T02:04:41.948Z,5.40
2022-08-01T02:07:09.971Z,5.60
2022-08-01T02:09:37.737Z,7.35
2022-08-01T02:12:08.679Z,4.05
2022-08-01T02:14:38.981Z,4.85
2022-08-01T02:17:05.433Z,6.35
2022-08-01T02:19:32.097Z,4.15
2022-08-01T02:22:11.548Z,5.80
2022-08-01T02:24:58.898Z,4.93
2022-08-01T02:27:26.773Z,4.72
2022-08-01T02:29:53.118Z,4.35
2022-08-01T02:32:28.060Z,6.75
2022-08-01T02:34:56.456Z,5.53
2022-08-01T02:37:23.465Z,8.23
2022-08-01T02:39:51.722Z,7.10
2022-08-01T02:42:19.256Z,4.75
2022-08-01T02:44:47.358Z,5.38
2022-08-01T02:47:13.842Z,6.05
2022-08-01T02:49:43.182Z,7.78
2022-08-01T02:52:14.676Z,8.95
2022-08-01T02:54:42.715Z,7.03
2022-08-01T02:57:10.030Z,5.85
2022-08-01T02:59:41.438Z,9.43
2022-08-01T03:02:09.924Z,6.75
2022-08-01T03:04:37.772Z,7.88
2022-08-01T03:07:05.234Z,9.75
2022-08-01T03:09:33.331Z,6.93
2022-08-01T03:12:01.038Z,7.13
2022-08-01T03:14:28.858Z,7.78
2022-08-01T03:16:56.880Z,6.43
2022-08-01T03:19:24.937Z,8.50
2022-08-01T03:21:51.867Z,7.25
2022-08-01T03:24:19.023Z,7.15
2022-08-01T03:26:45.903Z,9.35
2022-08-01T03:29:16.862Z,8.25
2022-08-01T03:34:11.237Z,7.68
2022-08-01T03:36:56.567Z,8.88
2022-08-01T03:39:26.124Z,8.63
2022-08-01T03:42:04.149Z,12.77
2022-08-01T03:44:31.644Z,11.35
2022-08-01T03:47:00.843Z,9.90
2022-08-01T03:49:30.773Z,9.07
2022-08-01T03:51:57.983Z,9.63
2022-08-01T03:54:29.446Z,10.15
2022-08-01T03:56:56.202Z,10.75
2022-08-01T03:59:22.741Z,10.93
2022-08-01T04:01:49.286Z,11.30
2022-08-01T04:04:15.873Z,10.80
2022-08-01T04:06:42.611Z,9.70
2022-08-01T04:09:13.323Z,11.65
2022-08-01T04:11:40.888Z,11.18
2022-08-01T04:14:09.137Z,11.85
2022-08-01T04:16:35.953Z,12.15
2022-08-01T04:19:02.479Z,11.68
2022-08-01T04:21:29.793Z,13.88
2022-08-01T04:24:00.189Z,14.05
2022-08-01T04:26:28.262Z,9.68
2022-08-01T04:28:55.776Z,9.73
2022-08-01T04:31:23.701Z,10.63
2022-08-01T04:33:52.208Z,9.13
2022-08-01T04:36:20.925Z,10.70
2022-08-01T04:38:49.207Z,8.57
2022-08-01T04:41:16.711Z,9.15
2022-08-01T04:43:44.449Z,10.52
2022-08-01T04:46:12.704Z,9.00
2022-08-01T04:48:39.885Z,7.95
2022-08-01T04:51:12.331Z,8.60
2022-08-01T04:53:38.725Z,7.70
2022-08-01T04:56:05.216Z,8.80
2022-08-01T04:58:31.665Z,6.30
2022-08-01T05:01:00.062Z,7.95
2022-08-01T05:03:26.507Z,7.95
2022-08-01T05:05:52.881Z,6.65
2022-08-01T05:08:19.263Z,8.32
2022-08-01T05:10:46.049Z,7.13
2022-08-01T05:13:12.484Z,7.45
2022-08-01T05:15:38.961Z,8.45
2022-08-01T05:18:05.405Z,6.00
2022-08-01T05:20:34.372Z,6.22
2022-08-01T05:23:00.822Z,6.80
2022-08-01T05:25:33.080Z,6.78
2022-08-01T05:28:13.641Z,7.00
2022-08-01T05:30:45.319Z,7.00
2022-08-01T05:33:11.699Z,7.65
2022-08-01T05:35:48.045Z,8.05
2022-08-01T05:38:15.672Z,11.07
2022-08-01T05:40:42.205Z,11.13
2022-08-01T05:43:08.653Z,9.57
2022-08-01T05:45:35.077Z,8.98
2022-08-01T05:48:01.483Z,9.40
2022-08-01T05:50:27.928Z,10.45
2022-08-01T05:52:54.375Z,12.27
2022-08-01T05:55:20.858Z,13.95
2022-08-01T05:57:47.233Z,12.05
2022-08-01T06:00:15.571Z,11.02
2022-08-01T06:02:43.423Z,12.77
2022-08-01T06:05:13.193Z,12.40
2022-08-01T06:07:40.846Z,13.50
2022-08-01T06:10:07.683Z,11.65
2022-08-01T06:12:36.803Z,11.60
2022-08-01T06:15:04.369Z,13.30
2022-08-01T06:17:30.770Z,11.13
2022-08-01T06:19:57.278Z,10.15
2022-08-01T06:22:23.726Z,9.45
2022-08-01T06:24:50.791Z,8.88
2022-08-01T06:27:22.430Z,9.23
2022-08-01T06:29:54.512Z,9.48
2022-08-01T06:32:26.775Z,9.48
2022-08-01T06:34:54.440Z,11.90
2022-08-01T06:37:20.824Z,7.90
2022-08-01T06:39:47.700Z,11.13
2022-08-01T06:42:15.907Z,10.10
2022-08-01T06:44:44.487Z,6.43
2022-08-01T06:47:10.911Z,6.00
2022-08-01T06:49:37.602Z,4.82
2022-08-01T06:52:04.971Z,7.15
2022-08-01T06:54:31.612Z,5.47
2022-08-01T06:56:58.056Z,3.28
2022-08-01T06:59:24.489Z,5.97
2022-08-01T07:01:51.023Z,5.38
2022-08-01T07:04:17.577Z,2.55
2022-08-01T07:06:44.069Z,4.07
2022-08-01T07:09:14.185Z,3.58
2022-08-01T07:11:41.396Z,4.53
2022-08-01T07:14:07.877Z,2.92
2022-08-01T07:16:34.361Z,2.00
2022-08-01T07:19:00.778Z,2.58
2022-08-01T07:21:38.489Z,3.47
2022-08-01T07:24:13.337Z,2.30
2022-08-01T07:26:47.703Z,3.03
2022-08-01T07:29:20.738Z,1.92
2022-08-01T07:31:47.199Z,2.72
2022-08-01T07:34:13.557Z,2.88
2022-08-01T07:36:39.944Z,4.18
2022-08-01T07:39:06.334Z,2.03
2022-08-01T07:41:53.120Z,2.10
2022-08-01T07:44:22.339Z,2.97
2022-08-01T07:46:48.817Z,3.35
2022-08-01T07:49:15.709Z,3.35
2022-08-01T07:51:42.187Z,3.50
2022-08-01T07:54:33.765Z,1.95
2022-08-01T07:57:00.901Z,3.30
2022-08-01T07:59:27.301Z,2.97
2022-08-01T08:01:53.832Z,1.85
2022-08-01T08:04:25.061Z,3.97
2022-08-01T08:06:51.825Z,2.30
2022-08-01T08:09:18.489Z,1.67
2022-08-01T08:11:47.837Z,2.33
2022-08-01T08:14:14.801Z,3.75
2022-08-01T08:16:41.231Z,4.13
2022-08-01T08:19:07.735Z,5.05
2022-08-01T08:21:37.518Z,2.72
2022-08-01T08:24:26.779Z,2.20
2022-08-01T08:26:57.690Z,2.17
2022-08-01T08:29:24.489Z,2.00
2022-08-01T08:31:52.992Z,2.72
2022-08-01T08:34:19.938Z,1.85
2022-08-01T08:36:48.103Z,3.10
2022-08-01T08:39:14.767Z,3.35
2022-08-01T08:41:41.792Z,4.05
2022-08-01T08:44:10.417Z,2.83
2022-08-01T08:46:45.015Z,1.90
2022-08-01T08:49:13.390Z,1.88
2022-08-01T08:51:40.796Z,3.63
2022-08-01T08:54:08.115Z,5.35
2022-08-01T08:56:35.836Z,3.78
2022-08-01T08:59:03.173Z,6.10
2022-08-01T09:01:29.768Z,3.10
2022-08-01T09:03:56.164Z,3.83
2022-08-01T09:06:23.712Z,6.63
2022-08-01T09:08:53.209Z,5.03
2022-08-01T09:11:22.814Z,5.45
2022-08-01T09:14:10.119Z,7.22
2022-08-01T09:16:37.967Z,5.88
2022-08-01T09:19:08.708Z,5.05
2022-08-01T09:21:59.428Z,3.25
2022-08-01T09:24:30.638Z,3.65
2022-08-01T09:26:57.786Z,6.10
2022-08-01T09:29:37.287Z,2.40
2022-08-01T09:32:06.389Z,4.07
2022-08-01T09:34:34.094Z,4.95
2022-08-01T09:37:03.528Z,6.72
2022-08-01T09:39:31.210Z,5.45
2022-08-01T09:42:00.605Z,3.92
2022-08-01T09:44:55.158Z,5.88
2022-08-01T09:47:23.824Z,5.32
2022-08-01T09:49:59.299Z,6.72
2022-08-01T09:52:29.226Z,5.38
2022-08-01T09:54:57.384Z,7.85
2022-08-01T09:57:24.344Z,4.15
2022-08-01T10:00:01.010Z,5.95
2022-08-01T10:02:28.591Z,4.43
2022-08-01T10:04:59.994Z,3.17
2022-08-01T10:07:43.415Z,3.65
2022-08-01T10:10:15.460Z,4.03
2022-08-01T10:12:48.346Z,5.78
2022-08-01T10:15:22.875Z,3.13
2022-08-01T10:18:05.937Z,3.63
2022-08-01T10:20:43.342Z,2.72
2022-08-01T10:23:11.503Z,3.22
2022-08-01T10:25:46.604Z,6.18
2022-08-01T10:28:23.823Z,5.13
2022-08-01T10:30:53.490Z,3.30
2022-08-01T10:33:50.451Z,4.47
2022-08-01T10:36:10.282Z,5.25
2022-08-01T10:38:39.642Z,2.78
2022-08-01T10:41:10.580Z,3.10
2022-08-01T10:43:37.357Z,4.18
2022-08-01T10:46:07.827Z,4.85
2022-08-01T10:48:47.656Z,3.83
2022-08-01T10:51:18.157Z,4.20
2022-08-01T10:53:54.030Z,3.55
2022-08-01T10:56:27.199Z,11.65
2022-08-01T10:59:02.071Z,3.90
2022-08-01T11:01:37.824Z,4.13
2022-08-01T11:04:16.445Z,5.63
2022-08-01T11:07:13.000Z,2.40
2022-08-01T11:09:41.548Z,5.68
2022-08-01T11:12:13.393Z,4.35
2022-08-01T11:15:02.423Z,5.03
2022-08-01T11:17:54.524Z,3.55
2022-08-01T11:20:27.935Z,5.05
2022-08-01T11:23:07.178Z,4.40
2022-08-01T11:26:06.166Z,4.97
2022-08-01T11:28:34.861Z,6.05
2022-08-01T11:31:11.280Z,4.07
2022-08-01T11:34:04.528Z,4.88
2022-08-01T11:36:57.529Z,4.32
2022-08-01T11:39:18.921Z,3.65
2022-08-01T11:41:47.406Z,12.95
2022-08-01T11:44:15.939Z,5.93
2022-08-01T11:47:01.256Z,2.85
2022-08-01T11:49:41.530Z,4.97
2022-08-01T11:52:17.019Z,5.93
2022-08-01T11:54:49.781Z,5.70
2022-08-01T11:57:42.357Z,8.77
2022-08-01T12:00:15.388Z,6.28
2022-08-01T12:02:45.347Z,5.43
2022-08-01T12:05:14.124Z,7.85
2022-08-01T12:07:42.517Z,11.57
2022-08-01T12:10:09.059Z,4.97
2022-08-01T12:12:36.796Z,5.32
2022-08-01T12:15:11.607Z,3.42
2022-08-01T12:17:58.649Z,3.33
2022-08-01T12:20:30.099Z,2.63
2022-08-01T12:22:59.207Z,4.90
2022-08-01T12:25:26.985Z,7.05
2022-08-01T12:27:56.626Z,6.38
2022-08-01T12:30:26.077Z,5.05
2022-08-01T12:32:53.232Z,4.18
2022-08-01T12:35:23.890Z,4.05
2022-08-01T12:37:51.352Z,3.92
2022-08-01T12:40:19.443Z,5.80
2022-08-01T12:42:46.919Z,4.47
2022-08-01T12:45:15.253Z,1.92
2022-08-01T12:47:42.430Z,3.38
2022-08-01T12:50:13.215Z,3.40
2022-08-01T12:52:40.049Z,4.70
2022-08-01T12:55:09.840Z,1.70
2022-08-01T12:57:39.075Z,2.28
2022-08-01T13:00:08.023Z,1.83
2022-08-01T13:02:35.245Z,3.00
2022-08-01T13:05:01.944Z,1.85
2022-08-01T13:07:46.085Z,2.35
2022-08-01T13:10:15.336Z,3.13
2022-08-01T13:12:51.511Z,4.97
2022-08-01T13:15:18.768Z,1.88
2022-08-01T13:17:45.410Z,2.97
2022-08-01T13:20:21.909Z,2.80
2022-08-01T13:22:48.631Z,2.08
2022-08-01T13:25:19.805Z,2.80
2022-08-01T13:27:53.673Z,2.55
2022-08-01T13:30:21.227Z,4.93
2022-08-01T13:33:00.217Z,2.40
2022-08-01T13:35:26.845Z,2.25
2022-08-01T13:37:53.461Z,2.70
2022-08-01T13:40:27.606Z,1.65
2022-08-01T13:42:55.912Z,3.80
2022-08-01T13:45:22.651Z,2.00
2022-08-01T13:48:11.789Z,4.85
2022-08-01T13:50:36.820Z,6.63
2022-08-01T13:53:03.583Z,5.45
2022-08-01T13:55:34.485Z,2.35
2022-08-01T13:58:02.083Z,4.22
2022-08-01T14:00:28.609Z,3.05
2022-08-01T14:02:55.168Z,2.78
2022-08-01T14:05:23.237Z,2.33
2022-08-01T14:07:49.738Z,2.05
2022-08-01T14:10:18.515Z,3.97
2022-08-01T14:12:46.798Z,2.53
2022-08-01T14:15:14.229Z,6.10
2022-08-01T14:17:47.864Z,2.50
2022-08-01T14:20:14.698Z,4.10
2022-08-01T14:22:41.614Z,4.32
2022-08-01T14:25:09.109Z,3.33
2022-08-01T14:27:37.266Z,3.60
2022-08-01T14:30:04.659Z,2.50
2022-08-01T14:32:31.349Z,2.83
2022-08-01T14:34:57.861Z,2.83
2022-08-01T14:37:28.663Z,8.13
2022-08-01T14:39:57.275Z,3.22
2022-08-01T14:42:25.422Z,3.92
2022-08-01T14:44:51.908Z,2.22
2022-08-01T14:47:21.715Z,4.25
2022-08-01T14:49:49.193Z,2.22
2022-08-01T14:52:15.626Z,1.92
2022-08-01T14:54:42.138Z,2.70
2022-08-01T14:57:08.510Z,3.05
2022-08-01T14:59:34.929Z,2.85
2022-08-01T15:02:01.642Z,2.72
2022-08-01T15:04:28.022Z,4.00
2022-08-01T15:06:54.746Z,3.55
2022-08-01T15:09:21.138Z,2.67
2022-08-01T15:11:48.148Z,2.50
2022-08-01T15:14:33.014Z,3.67
2022-08-01T15:17:01.371Z,3.42
2022-08-01T15:19:27.883Z,3.17
2022-08-01T15:21:54.255Z,2.33
2022-08-01T15:24:20.623Z,3.20
2022-08-01T15:26:47.026Z,2.45
2022-08-01T15:29:14.440Z,5.72
2022-08-01T15:31:40.992Z,2.30
2022-08-01T15:34:07.402Z,2.67
2022-08-01T15:36:33.807Z,3.92
2022-08-01T15:39:00.319Z,2.13
2022-08-01T15:41:26.731Z,3.33
2022-08-01T15:43:56.137Z,2.05
2022-08-01T15:46:22.849Z,2.85
2022-08-01T15:48:49.372Z,2.20
2022-08-01T15:51:15.791Z,2.83
2022-08-01T15:53:43.459Z,2.65
2022-08-01T15:56:09.846Z,1.77
2022-08-01T15:58:36.496Z,2.83
2022-08-01T16:01:03.014Z,2.28
2022-08-01T16:03:29.515Z,2.53
2022-08-01T16:05:55.933Z,1.77
2022-08-01T16:08:22.591Z,2.85
2022-08-01T16:10:49.075Z,3.47
2022-08-01T16:13:16.470Z,1.92
2022-08-01T16:15:44.921Z,3.17
2022-08-01T16:18:16.049Z,4.88
2022-08-01T16:20:45.828Z,3.15
2022-08-01T16:23:13.287Z,3.63
2022-08-01T16:25:39.715Z,1.85
2022-08-01T16:28:06.088Z,3.88
2022-08-01T16:30:32.592Z,3.42
2022-08-01T16:33:00.636Z,2.03
2022-08-01T16:35:36.244Z,2.30
2022-08-01T16:38:04.522Z,1.55
2022-08-01T16:40:31.554Z,2.63
2022-08-01T16:43:13.799Z,4.68
2022-08-01T16:48:29.170Z,3.80
2022-08-01T16:50:55.852Z,2.97
2022-08-01T16:53:24.593Z,2.85
2022-08-01T16:55:52.751Z,3.55
2022-08-01T16:58:27.277Z,2.00
2022-08-01T17:00:57.041Z,2.40
2022-08-01T17:03:51.333Z,3.42
2022-08-01T17:06:10.714Z,3.08
2022-08-01T17:08:37.335Z,3.47
2022-08-01T17:11:13.271Z,4.25
2022-08-01T17:13:41.135Z,3.53
2022-08-01T17:16:08.158Z,3.30
2022-08-01T17:18:34.754Z,2.47
2022-08-01T17:21:03.529Z,6.80
2022-08-01T17:23:31.921Z,3.67
2022-08-01T17:25:58.544Z,3.70
2022-08-01T17:28:26.107Z,3.30
2022-08-01T17:30:52.485Z,3.33
2022-08-01T17:33:18.959Z,3.58
2022-08-01T17:35:45.430Z,3.47
2022-08-01T17:38:11.829Z,3.97
2022-08-01T17:40:40.550Z,2.03
2022-08-01T17:43:10.477Z,2.92
2022-08-01T17:45:50.312Z,3.45
2022-08-01T17:48:18.673Z,3.22
2022-08-01T17:50:45.764Z,7.30
2022-08-01T17:53:12.456Z,3.22
2022-08-01T17:55:56.915Z,3.28
2022-08-01T17:58:33.142Z,3.45
2022-08-01T18:01:11.688Z,2.92
2022-08-01T18:03:40.823Z,2.97
2022-08-01T18:06:08.288Z,6.78
2022-08-01T18:08:35.261Z,3.17
2022-08-01T18:11:01.770Z,3.83
2022-08-01T18:13:29.369Z,2.53
2022-08-01T18:15:56.465Z,2.53
2022-08-01T18:18:33.634Z,1.58
2022-08-01T18:21:01.088Z,4.00
2022-08-01T18:23:27.502Z,3.13
2022-08-01T18:25:53.961Z,2.75
2022-08-01T18:28:31.645Z,3.97
2022-08-01T18:31:00.645Z,5.32
2022-08-01T18:33:27.058Z,3.33
2022-08-01T18:35:54.104Z,4.60
2022-08-01T18:38:20.798Z,2.33
2022-08-01T18:40:50.812Z,4.50
2022-08-01T18:43:24.748Z,3.03
2022-08-01T18:45:51.290Z,3.55
2022-08-01T18:48:17.738Z,3.92
2022-08-01T18:50:44.117Z,4.32
2022-08-01T18:53:10.579Z,3.38
2022-08-01T18:55:37.070Z,2.67
2022-08-01T18:58:03.693Z,3.35
2022-08-01T19:00:32.963Z,4.63
2022-08-01T19:02:59.398Z,4.35
2022-08-01T19:05:25.801Z,5.15
2022-08-01T19:08:04.939Z,2.50
2022-08-01T19:10:34.050Z,6.35
2022-08-01T19:13:01.306Z,3.95
2022-08-01T19:15:27.746Z,5.70
2022-08-01T19:17:54.167Z,8.50
2022-08-01T19:20:20.578Z,6.78
2022-08-01T19:22:47.029Z,4.90
2022-08-01T19:25:16.712Z,3.15
2022-08-01T19:27:47.413Z,7.88
2022-08-01T19:30:14.422Z,5.97
2022-08-01T19:32:42.523Z,5.53
2022-08-01T19:35:11.378Z,8.02
2022-08-01T19:37:41.232Z,10.30
2022-08-01T19:40:07.904Z,8.27
2022-08-01T19:42:34.502Z,7.50
2022-08-01T19:45:02.396Z,7.75
2022-08-01T19:47:50.846Z,10.25
2022-08-01T19:50:16.313Z,9.50
2022-08-01T19:52:44.619Z,8.60
2022-08-01T19:55:11.216Z,11.93
2022-08-01T19:57:46.208Z,8.60
2022-08-01T20:00:23.927Z,9.93
2022-08-01T20:02:56.498Z,11.57
2022-08-01T20:05:25.958Z,11.13
2022-08-01T20:07:52.820Z,13.45
2022-08-01T20:10:22.462Z,10.05
2022-08-01T20:12:48.955Z,14.50
2022-08-01T20:15:15.985Z,12.20
2022-08-01T20:17:42.577Z,16.67
2022-08-01T20:20:09.897Z,16.35
2022-08-01T20:22:36.654Z,11.20
2022-08-01T20:25:03.542Z,18.95
2022-08-01T20:27:30.887Z,15.55
2022-08-01T20:30:00.283Z,27.00
2022-08-01T20:32:30.976Z,15.02
2022-08-01T20:34:58.187Z,17.77
2022-08-01T20:38:04.171Z,14.18
2022-08-01T20:40:12.500Z,14.18
2022-08-01T20:42:40.074Z,15.95
2022-08-01T20:45:09.838Z,12.55
2022-08-01T20:47:39.294Z,16.23
2022-08-01T20:50:29.488Z,24.60
2022-08-01T20:53:10.714Z,16.45
2022-08-01T20:55:49.928Z,13.25
2022-08-01T20:58:22.146Z,27.00
2022-08-01T21:00:49.360Z,13.80
2022-08-01T21:03:19.144Z,13.20
2022-08-01T21:05:55.840Z,16.70
2022-08-01T21:08:45.474Z,17.25
2022-08-01T21:11:14.164Z,18.05
2022-08-01T21:13:41.901Z,16.63
2022-08-01T21:16:24.351Z,16.55
2022-08-01T21:19:10.059Z,15.20
2022-08-01T21:21:39.390Z,19.02
2022-08-01T21:24:06.831Z,19.90
2022-08-01T21:26:34.938Z,13.93
2022-08-01T21:29:05.020Z,13.57
2022-08-01T21:31:40.819Z,13.93
2022-08-01T21:34:08.199Z,18.60
2022-08-01T21:36:35.649Z,21.95
2022-08-01T21:39:03.167Z,13.10
2022-08-01T21:42:01.020Z,20.90
2022-08-01T21:44:17.921Z,14.18
2022-08-01T21:46:48.134Z,21.42
2022-08-01T21:49:14.633Z,21.17
2022-08-01T21:51:51.872Z,20.73
2022-08-01T21:54:27.885Z,17.40
2022-08-01T21:56:54.638Z,15.35
2022-08-01T21:59:32.216Z,15.20
2022-08-01T22:02:01.719Z,18.20
2022-08-01T22:04:51.489Z,17.98
2022-08-01T22:07:18.581Z,15.93
2022-08-01T22:09:46.030Z,13.68
2022-08-01T22:12:17.942Z,21.15
2022-08-01T22:14:47.134Z,16.05
2022-08-01T22:17:23.598Z,15.43
2022-08-01T22:19:53.723Z,16.08
2022-08-01T22:22:44.586Z,15.15
2022-08-01T22:25:07.917Z,16.88
2022-08-01T22:28:05.788Z,22.05
2022-08-01T22:30:21.291Z,14.60
2022-08-01T22:33:15.574Z,14.88
2022-08-01T22:35:35.389Z,14.43
2022-08-01T22:38:01.774Z,14.73
2022-08-01T22:40:32.310Z,16.63
2022-08-01T22:43:00.018Z,12.10
2022-08-01T22:45:29.499Z,15.98
2022-08-01T22:48:14.477Z,15.13
2022-08-01T22:50:45.400Z,14.02
2022-08-01T22:55:58.708Z,12.57
2022-08-01T22:58:27.301Z,15.82
2022-08-01T23:00:54.671Z,19.42
2022-08-01T23:03:29.167Z,15.75
2022-08-01T23:06:07.112Z,14.82
2022-08-01T23:08:33.877Z,15.02
2022-08-01T23:11:01.221Z,13.68
2022-08-01T23:13:29.009Z,21.25
2022-08-01T23:15:56.814Z,16.73
2022-08-01T23:18:26.421Z,14.80
2022-08-01T23:20:54.074Z,17.77
2022-08-01T23:23:30.739Z,12.40
2022-08-01T23:25:58.714Z,13.70
2022-08-01T23:28:28.650Z,14.93
2022-08-01T23:30:55.441Z,12.50
2022-08-01T23:33:21.922Z,16.23
2022-08-01T23:35:48.443Z,17.17
2022-08-01T23:38:16.148Z,12.65
2022-08-01T23:40:42.887Z,14.93
2022-08-01T23:43:14.706Z,18.45
2022-08-01T23:46:03.596Z,19.02
2022-08-01T23:48:30.231Z,20.10
2022-08-01T23:50:56.684Z,17.45
2022-08-01T23:53:24.073Z,14.43
2022-08-01T23:55:57.602Z,16.13
2022-08-01T23:58:24.013Z,13.15
